Wilson Norfolk — 9HA2466 — position and weather

sailwx.info

Track history (hours):
 
Tides and Currents Weather Stations Pressure Air Temp Water Temp Dewpoint Dewpoint Depression Visibility Wind Speed Wind Dir Waves Ship Positions

Wilson Norfolk

Last reported at 2017-Jan-21 03:33 UTC. Time now 2017-Jan-24 11:22 UTC.
Position N 55°27' W 006°48'.

Length 123 m; draft 5.2 m.

Type: Cargo ship. MMSI: 248678000.

Date/timePositionNaut miles runAvg speedWind from/ knotsBaromVisibWave heightAir tempDewpointWater temp
2017-Jan-21 03:33N 55°27' W 006°48'1211.5
2017-Jan-21 02:33N 55°26' W 006°28'1211.7
2017-Jan-21 01:33N 55°25' W 006°07'1111.4
2017-Jan-21 00:33N 55°17' W 005°53'1412.9
2017-Jan-20 23:27N 55°03' W 005°45'1213.1
2017-Jan-20 22:33N 54°52' W 005°40'1111.2
2017-Jan-20 21:33N 54°42' W 005°47'6 2.9
2017-Jan-20 19:24N 54°37' W 005°54'0 0.0
2017-Jan-20 18:30N 54°37' W 005°54'0 0.0
2017-Jan-20 15:30N 54°37' W 005°54'0 0.0
2017-Jan-20 14:30N 54°37' W 005°54'0 0.0
2017-Jan-20 13:24N 54°37' W 005°54'0 0.0
2017-Jan-20 11:18N 54°37' W 005°54'0 0.0
2017-Jan-20 06:30N 54°37' W 005°54'0 0.0
2017-Jan-20 05:30N 54°37' W 005°54'0 0.0
2017-Jan-20 04:30N 54°37' W 005°54'0 0.0
2017-Jan-20 03:24N 54°37' W 005°54'0 0.0
2017-Jan-20 02:30N 54°37' W 005°54'0 0.0
2017-Jan-20 01:30N 54°37' W 005°54'0 0.0
2017-Jan-20 00:30N 54°37' W 005°54'0 0.0
2017-Jan-19 18:33N 54°37' W 005°54'0 0.0
2017-Jan-19 16:09N 54°37' W 005°54'0 0.0
2017-Jan-19 14:33N 54°37' W 005°54'0 0.0
2017-Jan-19 13:15N 54°37' W 005°54'0 0.0
2017-Jan-19 07:30N 54°37' W 005°54'0 0.0
2017-Jan-19 06:33N 54°37' W 005°54'0 0.0
2017-Jan-19 05:30N 54°37' W 005°54'0 0.0
2017-Jan-19 04:21N 54°37' W 005°54'0 0.0
2017-Jan-19 03:33N 54°37' W 005°54'0 0.0
2017-Jan-19 02:33N 54°37' W 005°54'0 0.0
2017-Jan-19 01:33N 54°37' W 005°54'0 0.0
2017-Jan-18 20:06N 54°37' W 005°54'0 0.0
2017-Jan-18 17:30N 54°37' W 005°54'0 0.0
2017-Jan-18 16:15N 54°37' W 005°54'0 0.0
2017-Jan-18 15:27N 54°37' W 005°54'0 0.0
2017-Jan-18 14:27N 54°37' W 005°54'0 0.0
2017-Jan-18 13:24N 54°37' W 005°54'0 0.0
2017-Jan-18 12:30N 54°37' W 005°54'0 0.0
2017-Jan-18 11:27N 54°37' W 005°54'0 0.0
2017-Jan-18 09:33N 54°37' W 005°54'0 0.0
2017-Jan-18 08:33N 54°37' W 005°54'0 0.0
2017-Jan-18 07:21N 54°37' W 005°54'0 0.0
2017-Jan-18 06:33N 54°37' W 005°54'0 0.0
2017-Jan-18 05:33N 54°37' W 005°54'0 0.0
2017-Jan-18 04:33N 54°37' W 005°54'0 0.0
2017-Jan-18 03:33N 54°37' W 005°54'0 0.0
2017-Jan-18 02:21N 54°37' W 005°54'0 0.0
2017-Jan-18 01:30N 54°37' W 005°54'0 0.0
2017-Jan-18 00:33N 54°37' W 005°54'0 0.1
2017-Jan-17 20:23N 54°37' W 005°54'6 7.6
2017-Jan-17 19:34N 54°42' W 005°46'3 3.3
2017-Jan-17 18:33N 54°41' W 005°41'0 0.0
2017-Jan-17 17:33N 54°41' W 005°41'0 0.0
2017-Jan-17 16:33N 54°41' W 005°41'6 5.7
2017-Jan-17 15:33N 54°47' W 005°39'2311.6
2017-Jan-17 13:33N 55°09' W 005°53'1514.6
2017-Jan-17 12:33N 55°21' W 006°07'1212.5
2017-Jan-17 11:33N 55°29' W 006°23'1413.5
2017-Jan-17 10:33N 55°40' W 006°36'1313.1
2017-Jan-17 09:33N 55°52' W 006°48'187 9.6
2017-Jan-16 14:06N 58°41' W 004°19'611.6
2017-Jan-16 13:33N 58°41' W 004°06'1111.3
2017-Jan-16 12:33N 58°42' W 003°45'1010.3
2017-Jan-16 11:33N 58°42' W 003°25'8 8.4
2017-Jan-16 10:33N 58°43' W 003°09'6 5.5
2017-Jan-16 09:33N 58°43' W 002°58'10 9.9
2017-Jan-16 08:33N 58°42' W 002°39'28412.3
2017-Jan-15 09:28N 57°51' E 006°12'1212.6
2017-Jan-15 08:33N 57°49' E 006°34'1212.2
2017-Jan-15 07:33N 57°47' E 006°57'10212.3
2017-Jan-14 23:12N 57°48' E 010°09'812.0
2017-Jan-14 22:33N 57°48' E 010°23'1111.3
2017-Jan-14 21:33N 57°49' E 010°44'1211.9
2017-Jan-14 20:33N 57°41' E 011°01'1211.9
2017-Jan-14 19:33N 57°33' E 011°18'1111.1
2017-Jan-14 18:33N 57°24' E 011°29'1110.8
2017-Jan-14 17:33N 57°13' E 011°36'1111.3
2017-Jan-14 16:33N 57°03' E 011°43'4912.0
2017-Jan-14 12:30N 56°19' E 012°23'1313.4
2017-Jan-14 11:33N 56°08' E 012°32'1313.0
2017-Jan-14 10:33N 55°57' E 012°43'1312.8
2017-Jan-14 09:33N 55°44' E 012°42'1212.1
2017-Jan-14 08:34N 55°32' E 012°43'1312.9
2017-Jan-14 07:33N 55°19' E 012°42'1211.5
2017-Jan-14 06:33N 55°16' E 013°01'1211.8
2017-Jan-14 05:31N 55°15' E 013°23'1112.0
2017-Jan-14 04:33N 55°14' E 013°43'1212.0
2017-Jan-14 03:33N 55°13' E 014°04'4511.3
2017-Jan-13 23:33N 55°38' E 015°11'  
Track history (hours):
 
Tides and Currents Weather Stations Pressure Air Temp Water Temp Dewpoint Dewpoint Depression Visibility Wind Speed Wind Dir Waves Ship Positions

Wilson Norfolk

Last reported at 2017-Jan-21 03:33 UTC. Time now 2017-Jan-24 11:23 UTC.
Position N 55°27' W 006°48'.

Length 123 m; draft 5.2 m.

Type: Cargo ship. MMSI: 248678000.

Date/timePositionNaut miles runAvg speedWind from/ knotsBaromVisibWave heightAir tempDewpointWater temp
2017-Jan-21 03:33N 55°27' W 006°48'1211.5
2017-Jan-21 02:33N 55°26' W 006°28'1211.7
2017-Jan-21 01:33N 55°25' W 006°07'1111.4
2017-Jan-21 00:33N 55°17' W 005°53'1412.9
2017-Jan-20 23:27N 55°03' W 005°45'1213.1
2017-Jan-20 22:33N 54°52' W 005°40'1111.2
2017-Jan-20 21:33N 54°42' W 005°47'6 2.9
2017-Jan-20 19:24N 54°37' W 005°54'0 0.0
2017-Jan-20 18:30N 54°37' W 005°54'0 0.0
2017-Jan-20 15:30N 54°37' W 005°54'0 0.0
2017-Jan-20 14:30N 54°37' W 005°54'0 0.0
2017-Jan-20 13:24N 54°37' W 005°54'0 0.0
2017-Jan-20 11:18N 54°37' W 005°54'0 0.0
2017-Jan-20 06:30N 54°37' W 005°54'0 0.0
2017-Jan-20 05:30N 54°37' W 005°54'0 0.0
2017-Jan-20 04:30N 54°37' W 005°54'0 0.0
2017-Jan-20 03:24N 54°37' W 005°54'0 0.0
2017-Jan-20 02:30N 54°37' W 005°54'0 0.0
2017-Jan-20 01:30N 54°37' W 005°54'0 0.0
2017-Jan-20 00:30N 54°37' W 005°54'0 0.0
2017-Jan-19 18:33N 54°37' W 005°54'0 0.0
2017-Jan-19 16:09N 54°37' W 005°54'0 0.0
2017-Jan-19 14:33N 54°37' W 005°54'0 0.0
2017-Jan-19 13:15N 54°37' W 005°54'0 0.0
2017-Jan-19 07:30N 54°37' W 005°54'0 0.0
2017-Jan-19 06:33N 54°37' W 005°54'0 0.0
2017-Jan-19 05:30N 54°37' W 005°54'0 0.0
2017-Jan-19 04:21N 54°37' W 005°54'0 0.0
2017-Jan-19 03:33N 54°37' W 005°54'0 0.0
2017-Jan-19 02:33N 54°37' W 005°54'0 0.0
2017-Jan-19 01:33N 54°37' W 005°54'0 0.0
2017-Jan-18 20:06N 54°37' W 005°54'0 0.0
2017-Jan-18 17:30N 54°37' W 005°54'0 0.0
2017-Jan-18 16:15N 54°37' W 005°54'0 0.0
2017-Jan-18 15:27N 54°37' W 005°54'0 0.0
2017-Jan-18 14:27N 54°37' W 005°54'0 0.0
2017-Jan-18 13:24N 54°37' W 005°54'0 0.0
2017-Jan-18 12:30N 54°37' W 005°54'0 0.0
2017-Jan-18 11:27N 54°37' W 005°54'0 0.0
2017-Jan-18 09:33N 54°37' W 005°54'0 0.0
2017-Jan-18 08:33N 54°37' W 005°54'0 0.0
2017-Jan-18 07:21N 54°37' W 005°54'0 0.0
2017-Jan-18 06:33N 54°37' W 005°54'0 0.0
2017-Jan-18 05:33N 54°37' W 005°54'0 0.0
2017-Jan-18 04:33N 54°37' W 005°54'0 0.0
2017-Jan-18 03:33N 54°37' W 005°54'0 0.0
2017-Jan-18 02:21N 54°37' W 005°54'0 0.0
2017-Jan-18 01:30N 54°37' W 005°54'0 0.0
2017-Jan-18 00:33N 54°37' W 005°54'0 0.1
2017-Jan-17 20:23N 54°37' W 005°54'6 7.6
2017-Jan-17 19:34N 54°42' W 005°46'3 3.3
2017-Jan-17 18:33N 54°41' W 005°41'0 0.0
2017-Jan-17 17:33N 54°41' W 005°41'0 0.0
2017-Jan-17 16:33N 54°41' W 005°41'6 5.7
2017-Jan-17 15:33N 54°47' W 005°39'2311.6
2017-Jan-17 13:33N 55°09' W 005°53'1514.6
2017-Jan-17 12:33N 55°21' W 006°07'1212.5
2017-Jan-17 11:33N 55°29' W 006°23'1413.5
2017-Jan-17 10:33N 55°40' W 006°36'1313.1
2017-Jan-17 09:33N 55°52' W 006°48'187 9.6
2017-Jan-16 14:06N 58°41' W 004°19'611.6
2017-Jan-16 13:33N 58°41' W 004°06'1111.3
2017-Jan-16 12:33N 58°42' W 003°45'1010.3
2017-Jan-16 11:33N 58°42' W 003°25'8 8.4
2017-Jan-16 10:33N 58°43' W 003°09'6 5.5
2017-Jan-16 09:33N 58°43' W 002°58'10 9.9
2017-Jan-16 08:33N 58°42' W 002°39'28412.3
2017-Jan-15 09:28N 57°51' E 006°12'1212.6
2017-Jan-15 08:33N 57°49' E 006°34'1212.2
2017-Jan-15 07:33N 57°47' E 006°57'10212.3
2017-Jan-14 23:12N 57°48' E 010°09'812.0
2017-Jan-14 22:33N 57°48' E 010°23'1111.3
2017-Jan-14 21:33N 57°49' E 010°44'1211.9
2017-Jan-14 20:33N 57°41' E 011°01'1211.9
2017-Jan-14 19:33N 57°33' E 011°18'1111.1
2017-Jan-14 18:33N 57°24' E 011°29'1110.8
2017-Jan-14 17:33N 57°13' E 011°36'1111.3
2017-Jan-14 16:33N 57°03' E 011°43'4912.0
2017-Jan-14 12:30N 56°19' E 012°23'1313.4
2017-Jan-14 11:33N 56°08' E 012°32'1313.0
2017-Jan-14 10:33N 55°57' E 012°43'1312.8
2017-Jan-14 09:33N 55°44' E 012°42'1212.1
2017-Jan-14 08:34N 55°32' E 012°43'1312.9
2017-Jan-14 07:33N 55°19' E 012°42'1211.5
2017-Jan-14 06:33N 55°16' E 013°01'1211.8
2017-Jan-14 05:31N 55°15' E 013°23'1112.0
2017-Jan-14 04:33N 55°14' E 013°43'1212.0
2017-Jan-14 03:33N 55°13' E 014°04'4511.3
2017-Jan-13 23:33N 55°38' E 015°11'  

Dump ship's entire track history